sensor_id;sensor_type;location;lat;lon;timestamp;temperature;humidity
17007;DHT22;8620;51.168;4.154;2024-03-06T07:38:03;7.10;99.90
17007;DHT22;8620;51.168;4.154;2024-03-06T07:40:31;7.30;99.90
17007;DHT22;8620;51.168;4.154;2024-03-06T07:42:57;7.60;99.90
17007;DHT22;8620;51.168;4.154;2024-03-06T07:45:25;7.80;99.90
17007;DHT22;8620;51.168;4.154;2024-03-06T07:48:05;7.90;99.90
17007;DHT22;8620;51.168;4.154;2024-03-06T07:50:31;7.90;99.90
17007;DHT22;8620;51.168;4.154;2024-03-06T07:53:00;8.00;99.90
17007;DHT22;8620;51.168;4.154;2024-03-06T07:55:26;8.10;99.90
17007;DHT22;8620;51.168;4.154;2024-03-06T07:57:51;8.40;99.90
17007;DHT22;8620;51.168;4.154;2024-03-06T08:00:21;8.30;99.90
17007;DHT22;8620;51.168;4.154;2024-03-06T08:02:47;8.70;99.90
17007;DHT22;8620;51.168;4.154;2024-03-06T08:05:16;9.30;99.90
17007;DHT22;8620;51.168;4.154;2024-03-06T08:07:43;9.90;99.90
17007;DHT22;8620;51.168;4.154;2024-03-06T08:10:29;10.00;99.90
17007;DHT22;8620;51.168;4.154;2024-03-06T08:12:56;9.60;99.90
17007;DHT22;8620;51.168;4.154;2024-03-06T08:15:23;9.70;99.90
17007;DHT22;8620;51.168;4.154;2024-03-06T08:17:49;10.20;99.90
17007;DHT22;8620;51.168;4.154;2024-03-06T08:20:21;10.00;99.90
17007;DHT22;8620;51.168;4.154;2024-03-06T08:22:53;10.00;99.90
17007;DHT22;8620;51.168;4.154;2024-03-06T08:25:19;9.70;99.90
17007;DHT22;8620;51.168;4.154;2024-03-06T08:27:47;9.50;99.90
17007;DHT22;8620;51.168;4.154;2024-03-06T08:30:13;9.40;99.90
17007;DHT22;8620;51.168;4.154;2024-03-06T08:32:39;9.10;99.90
17007;DHT22;8620;51.168;4.154;2024-03-06T08:35:12;10.20;99.90
17007;DHT22;8620;51.168;4.154;2024-03-06T08:37:41;10.80;99.90
17007;DHT22;8620;51.168;4.154;2024-03-06T08:40:07;10.10;99.90
17007;DHT22;8620;51.168;4.154;2024-03-06T08:42:59;10.70;99.90
17007;DHT22;8620;51.168;4.154;2024-03-06T08:45:28;10.70;99.90
17007;DHT22;8620;51.168;4.154;2024-03-06T08:47:56;11.10;99.90
17007;DHT22;8620;51.168;4.154;2024-03-06T08:50:22;11.30;99.90
17007;DHT22;8620;51.168;4.154;2024-03-06T08:53:00;12.10;99.90
17007;DHT22;8620;51.168;4.154;2024-03-06T08:55:28;12.00;99.90
17007;DHT22;8620;51.168;4.154;2024-03-06T08:57:54;11.60;99.90
17007;DHT22;8620;51.168;4.154;2024-03-06T09:00:20;12.50;99.90
17007;DHT22;8620;51.168;4.154;2024-03-06T09:02:46;13.80;99.90
17007;DHT22;8620;51.168;4.154;2024-03-06T09:05:13;13.70;99.90
17007;DHT22;8620;51.168;4.154;2024-03-06T09:07:39;13.50;99.90
17007;DHT22;8620;51.168;4.154;2024-03-06T09:10:10;13.80;99.90
17007;DHT22;8620;51.168;4.154;2024-03-06T09:12:36;14.20;99.90
17007;DHT22;8620;51.168;4.154;2024-03-06T09:15:13;14.30;99.90
17007;DHT22;8620;51.168;4.154;2024-03-06T09:17:40;14.40;99.90
17007;DHT22;8620;51.168;4.154;2024-03-06T09:20:07;14.30;99.90
17007;DHT22;8620;51.168;4.154;2024-03-06T09:22:37;14.00;99.90
17007;DHT22;8620;51.168;4.154;2024-03-06T09:25:06;13.90;99.90
17007;DHT22;8620;51.168;4.154;2024-03-06T09:27:36;14.40;99.90
17007;DHT22;8620;51.168;4.154;2024-03-06T09:30:05;14.20;99.90
17007;DHT22;8620;51.168;4.154;2024-03-06T09:32:31;14.30;99.90
17007;DHT22;8620;51.168;4.154;2024-03-06T09:34:58;13.50;99.90
17007;DHT22;8620;51.168;4.154;2024-03-06T09:37:24;12.90;99.90
17007;DHT22;8620;51.168;4.154;2024-03-06T09:39:50;13.30;99.90
17007;DHT22;8620;51.168;4.154;2024-03-06T09:42:16;12.40;99.90
17007;DHT22;8620;51.168;4.154;2024-03-06T09:44:54;12.10;99.90
17007;DHT22;8620;51.168;4.154;2024-03-06T09:47:22;12.80;99.90
17007;DHT22;8620;51.168;4.154;2024-03-06T09:49:51;14.10;99.90
17007;DHT22;8620;51.168;4.154;2024-03-06T09:52:22;15.10;99.90
17007;DHT22;8620;51.168;4.154;2024-03-06T09:54:54;15.10;99.90
17007;DHT22;8620;51.168;4.154;2024-03-06T09:57:24;15.20;99.90
17007;DHT22;8620;51.168;4.154;2024-03-06T09:59:50;15.20;99.90
17007;DHT22;8620;51.168;4.154;2024-03-06T10:02:43;14.00;99.90
17007;DHT22;8620;51.168;4.154;2024-03-06T10:05:24;13.10;99.90
17007;DHT22;8620;51.168;4.154;2024-03-06T10:07:51;13.00;99.90
17007;DHT22;8620;51.168;4.154;2024-03-06T10:10:19;13.00;99.90
17007;DHT22;8620;51.168;4.154;2024-03-06T10:12:46;13.40;99.90
17007;DHT22;8620;51.168;4.154;2024-03-06T10:15:21;14.40;99.90
17007;DHT22;8620;51.168;4.154;2024-03-06T10:17:47;14.70;99.90
17007;DHT22;8620;51.168;4.154;2024-03-06T10:20:22;13.90;99.90
17007;DHT22;8620;51.168;4.154;2024-03-06T10:33:23;13.30;99.90
17007;DHT22;8620;51.168;4.154;2024-03-06T10:35:49;13.70;99.90
17007;DHT22;8620;51.168;4.154;2024-03-06T10:38:15;14.10;99.90
17007;DHT22;8620;51.168;4.154;2024-03-06T10:40:43;14.30;99.90
17007;DHT22;8620;51.168;4.154;2024-03-06T10:43:10;15.60;99.90
17007;DHT22;8620;51.168;4.154;2024-03-06T10:45:40;15.60;99.90
17007;DHT22;8620;51.168;4.154;2024-03-06T10:48:09;15.80;99.90
17007;DHT22;8620;51.168;4.154;2024-03-06T10:50:40;16.00;99.90
17007;DHT22;8620;51.168;4.154;2024-03-06T10:53:12;16.10;99.90
17007;DHT22;8620;51.168;4.154;2024-03-06T10:55:39;16.20;99.90
17007;DHT22;8620;51.168;4.154;2024-03-06T10:58:10;14.70;99.90
17007;DHT22;8620;51.168;4.154;2024-03-06T11:00:42;15.20;99.90
17007;DHT22;8620;51.168;4.154;2024-03-06T11:03:13;14.20;99.90
17007;DHT22;8620;51.168;4.154;2024-03-06T11:05:40;14.60;99.90
17007;DHT22;8620;51.168;4.154;2024-03-06T11:08:08;14.50;99.90
17007;DHT22;8620;51.168;4.154;2024-03-06T11:10:37;14.50;99.90
17007;DHT22;8620;51.168;4.154;2024-03-06T11:13:10;14.70;99.90
17007;DHT22;8620;51.168;4.154;2024-03-06T11:15:49;14.00;99.90
17007;DHT22;8620;51.168;4.154;2024-03-06T11:23:32;13.20;99.90
17007;DHT22;8620;51.168;4.154;2024-03-06T11:26:05;14.60;99.90
17007;DHT22;8620;51.168;4.154;2024-03-06T11:28:52;15.70;99.90
17007;DHT22;8620;51.168;4.154;2024-03-06T11:31:19;15.00;99.90
17007;DHT22;8620;51.168;4.154;2024-03-06T11:33:53;14.80;99.90
17007;DHT22;8620;51.168;4.154;2024-03-06T11:36:28;16.00;99.90
17007;DHT22;8620;51.168;4.154;2024-03-06T11:38:58;17.20;99.90
17007;DHT22;8620;51.168;4.154;2024-03-06T11:41:30;17.00;99.90
17007;DHT22;8620;51.168;4.154;2024-03-06T11:44:02;15.30;99.90
17007;DHT22;8620;51.168;4.154;2024-03-06T11:49:19;15.60;99.90
17007;DHT22;8620;51.168;4.154;2024-03-06T11:51:50;15.40;99.90
17007;DHT22;8620;51.168;4.154;2024-03-06T11:54:19;15.30;99.90
17007;DHT22;8620;51.168;4.154;2024-03-06T11:56:50;14.90;99.90
17007;DHT22;8620;51.168;4.154;2024-03-06T11:59:30;15.60;99.90
17007;DHT22;8620;51.168;4.154;2024-03-06T12:02:00;16.90;99.90
17007;DHT22;8620;51.168;4.154;2024-03-06T12:04:35;15.40;99.90
17007;DHT22;8620;51.168;4.154;2024-03-06T12:07:10;15.20;99.90
17007;DHT22;8620;51.168;4.154;2024-03-06T12:09:38;15.10;99.90
17007;DHT22;8620;51.168;4.154;2024-03-06T12:12:07;13.70;99.90
17007;DHT22;8620;51.168;4.154;2024-03-06T12:14:35;14.20;99.90
17007;DHT22;8620;51.168;4.154;2024-03-06T12:17:02;14.30;99.90
17007;DHT22;8620;51.168;4.154;2024-03-06T12:19:35;14.70;99.90
17007;DHT22;8620;51.168;4.154;2024-03-06T12:22:04;14.90;99.90
17007;DHT22;8620;51.168;4.154;2024-03-06T12:24:59;15.70;99.90
17007;DHT22;8620;51.168;4.154;2024-03-06T12:27:26;16.90;99.90
17007;DHT22;8620;51.168;4.154;2024-03-06T12:29:53;18.00;99.90
17007;DHT22;8620;51.168;4.154;2024-03-06T12:32:19;18.00;99.90
17007;DHT22;8620;51.168;4.154;2024-03-06T12:34:58;16.20;99.90
17007;DHT22;8620;51.168;4.154;2024-03-06T12:37:37;16.00;99.90
17007;DHT22;8620;51.168;4.154;2024-03-06T12:40:25;16.90;99.90
17007;DHT22;8620;51.168;4.154;2024-03-06T12:42:55;17.30;99.90
17007;DHT22;8620;51.168;4.154;2024-03-06T12:45:21;16.80;99.90
17007;DHT22;8620;51.168;4.154;2024-03-06T12:47:48;17.40;99.90
17007;DHT22;8620;51.168;4.154;2024-03-06T12:50:15;17.90;99.90
17007;DHT22;8620;51.168;4.154;2024-03-06T12:52:41;17.80;99.90
17007;DHT22;8620;51.168;4.154;2024-03-06T12:55:10;15.70;99.90
17007;DHT22;8620;51.168;4.154;2024-03-06T12:57:36;15.70;99.90
17007;DHT22;8620;51.168;4.154;2024-03-06T13:00:02;15.70;99.90
17007;DHT22;8620;51.168;4.154;2024-03-06T13:02:29;14.80;99.90
17007;DHT22;8620;51.168;4.154;2024-03-06T13:04:55;15.50;99.90
17007;DHT22;8620;51.168;4.154;2024-03-06T13:07:20;15.90;99.90
17007;DHT22;8620;51.168;4.154;2024-03-06T13:10:00;16.40;99.90
17007;DHT22;8620;51.168;4.154;2024-03-06T13:12:31;16.80;99.90
17007;DHT22;8620;51.168;4.154;2024-03-06T13:14:57;17.00;99.90
17007;DHT22;8620;51.168;4.154;2024-03-06T13:17:23;16.60;99.90
17007;DHT22;8620;51.168;4.154;2024-03-06T13:19:49;16.80;99.90
17007;DHT22;8620;51.168;4.154;2024-03-06T13:22:15;16.60;99.90
17007;DHT22;8620;51.168;4.154;2024-03-06T13:24:41;16.30;99.90
17007;DHT22;8620;51.168;4.154;2024-03-06T13:27:07;15.70;99.90
17007;DHT22;8620;51.168;4.154;2024-03-06T13:29:33;15.40;99.90
17007;DHT22;8620;51.168;4.154;2024-03-06T13:31:59;15.50;99.90
17007;DHT22;8620;51.168;4.154;2024-03-06T13:34:25;14.80;99.90
17007;DHT22;8620;51.168;4.154;2024-03-06T13:36:55;14.70;99.90
17007;DHT22;8620;51.168;4.154;2024-03-06T13:39:23;14.40;99.90
17007;DHT22;8620;51.168;4.154;2024-03-06T13:41:50;14.40;99.90
17007;DHT22;8620;51.168;4.154;2024-03-06T13:44:18;14.60;99.90
17007;DHT22;8620;51.168;4.154;2024-03-06T13:46:49;14.70;99.90
17007;DHT22;8620;51.168;4.154;2024-03-06T13:49:41;14.10;99.90
17007;DHT22;8620;51.168;4.154;2024-03-06T13:52:09;13.60;99.90
17007;DHT22;8620;51.168;4.154;2024-03-06T13:54:38;13.40;99.90
17007;DHT22;8620;51.168;4.154;2024-03-06T13:57:08;13.40;99.90
17007;DHT22;8620;51.168;4.154;2024-03-06T13:59:35;13.10;99.90
17007;DHT22;8620;51.168;4.154;2024-03-06T14:02:04;12.90;99.90
17007;DHT22;8620;51.168;4.154;2024-03-06T14:04:37;13.10;99.90
17007;DHT22;8620;51.168;4.154;2024-03-06T14:07:09;13.30;99.90
17007;DHT22;8620;51.168;4.154;2024-03-06T14:09:42;13.20;99.90
17007;DHT22;8620;51.168;4.154;2024-03-06T14:12:12;13.10;99.90
17007;DHT22;8620;51.168;4.154;2024-03-06T14:14:49;13.20;99.90
17007;DHT22;8620;51.168;4.154;2024-03-06T14:17:15;13.40;99.90
17007;DHT22;8620;51.168;4.154;2024-03-06T14:19:41;13.50;99.90
17007;DHT22;8620;51.168;4.154;2024-03-06T14:22:08;13.80;99.90
17007;DHT22;8620;51.168;4.154;2024-03-06T14:24:35;14.10;99.90
17007;DHT22;8620;51.168;4.154;2024-03-06T14:30:03;13.80;99.90
17007;DHT22;8620;51.168;4.154;2024-03-06T14:32:30;13.90;99.90
17007;DHT22;8620;51.168;4.154;2024-03-06T14:34:56;14.10;99.90
17007;DHT22;8620;51.168;4.154;2024-03-06T14:37:22;14.30;99.90
17007;DHT22;8620;51.168;4.154;2024-03-06T14:39:48;14.50;99.90
17007;DHT22;8620;51.168;4.154;2024-03-06T14:42:13;14.50;99.90
17007;DHT22;8620;51.168;4.154;2024-03-06T14:44:40;14.50;99.90
17007;DHT22;8620;51.168;4.154;2024-03-06T14:47:15;14.60;99.90
17007;DHT22;8620;51.168;4.154;2024-03-06T14:49:44;14.60;99.90
17007;DHT22;8620;51.168;4.154;2024-03-06T14:52:11;14.70;99.90
17007;DHT22;8620;51.168;4.154;2024-03-06T14:54:40;14.70;99.90
17007;DHT22;8620;51.168;4.154;2024-03-06T14:57:07;15.00;99.90
17007;DHT22;8620;51.168;4.154;2024-03-06T14:59:34;14.70;99.90
17007;DHT22;8620;51.168;4.154;2024-03-06T15:02:01;14.50;99.90
17007;DHT22;8620;51.168;4.154;2024-03-06T15:04:29;14.30;99.90
17007;DHT22;8620;51.168;4.154;2024-03-06T15:06:55;14.40;99.90
17007;DHT22;8620;51.168;4.154;2024-03-06T15:09:21;14.50;99.90
17007;DHT22;8620;51.168;4.154;2024-03-06T15:11:52;14.70;99.90
17007;DHT22;8620;51.168;4.154;2024-03-06T15:14:19;14.60;99.90
17007;DHT22;8620;51.168;4.154;2024-03-06T15:16:45;14.50;99.90
17007;DHT22;8620;51.168;4.154;2024-03-06T15:19:11;14.20;99.90
17007;DHT22;8620;51.168;4.154;2024-03-06T15:21:37;14.00;99.90
17007;DHT22;8620;51.168;4.154;2024-03-06T15:24:04;13.50;99.90
17007;DHT22;8620;51.168;4.154;2024-03-06T15:26:30;13.50;99.90
17007;DHT22;8620;51.168;4.154;2024-03-06T15:29:05;13.80;99.90
17007;DHT22;8620;51.168;4.154;2024-03-06T15:31:39;14.40;99.90
17007;DHT22;8620;51.168;4.154;2024-03-06T15:34:05;13.70;99.90
17007;DHT22;8620;51.168;4.154;2024-03-06T15:36:32;13.40;99.90
17007;DHT22;8620;51.168;4.154;2024-03-06T15:39:05;13.00;99.90
17007;DHT22;8620;51.168;4.154;2024-03-06T15:41:32;12.70;99.90
17007;DHT22;8620;51.168;4.154;2024-03-06T15:43:58;13.00;99.90
17007;DHT22;8620;51.168;4.154;2024-03-06T15:46:24;13.60;99.90
17007;DHT22;8620;51.168;4.154;2024-03-06T15:48:51;13.90;99.90
17007;DHT22;8620;51.168;4.154;2024-03-06T15:51:17;13.50;99.90
17007;DHT22;8620;51.168;4.154;2024-03-06T15:53:43;13.40;99.90
17007;DHT22;8620;51.168;4.154;2024-03-06T15:56:13;13.30;99.90
17007;DHT22;8620;51.168;4.154;2024-03-06T15:58:57;13.20;99.90
17007;DHT22;8620;51.168;4.154;2024-03-06T16:01:23;13.60;99.90
17007;DHT22;8620;51.168;4.154;2024-03-06T16:03:50;13.80;99.90
17007;DHT22;8620;51.168;4.154;2024-03-06T16:06:18;13.60;99.90
17007;DHT22;8620;51.168;4.154;2024-03-06T16:09:19;13.90;99.90
17007;DHT22;8620;51.168;4.154;2024-03-06T16:11:45;13.90;99.90
17007;DHT22;8620;51.168;4.154;2024-03-06T16:14:11;13.50;99.90
17007;DHT22;8620;51.168;4.154;2024-03-06T16:17:06;13.20;99.90
17007;DHT22;8620;51.168;4.154;2024-03-06T16:19:38;12.90;99.90
17007;DHT22;8620;51.168;4.154;2024-03-06T16:22:26;12.70;99.90
17007;DHT22;8620;51.168;4.154;2024-03-06T16:24:52;12.80;99.90
17007;DHT22;8620;51.168;4.154;2024-03-06T16:27:24;12.60;99.90
17007;DHT22;8620;51.168;4.154;2024-03-06T16:29:49;12.30;99.90
17007;DHT22;8620;51.168;4.154;2024-03-06T16:32:16;12.40;99.90
17007;DHT22;8620;51.168;4.154;2024-03-06T16:34:52;12.30;99.90
17007;DHT22;8620;51.168;4.154;2024-03-06T16:37:18;12.30;99.90
17007;DHT22;8620;51.168;4.154;2024-03-06T16:39:48;12.30;99.90
17007;DHT22;8620;51.168;4.154;2024-03-06T16:42:15;12.00;99.90
17007;DHT22;8620;51.168;4.154;2024-03-06T16:45:11;11.80;99.90
17007;DHT22;8620;51.168;4.154;2024-03-06T16:47:40;11.80;99.90
17007;DHT22;8620;51.168;4.154;2024-03-06T16:50:06;12.10;99.90
17007;DHT22;8620;51.168;4.154;2024-03-06T16:52:33;11.80;99.90
17007;DHT22;8620;51.168;4.154;2024-03-06T16:54:59;12.30;99.90
17007;DHT22;8620;51.168;4.154;2024-03-06T16:57:26;12.40;99.90
17007;DHT22;8620;51.168;4.154;2024-03-06T16:59:52;12.10;99.90
17007;DHT22;8620;51.168;4.154;2024-03-06T17:02:19;11.70;99.90
17007;DHT22;8620;51.168;4.154;2024-03-06T17:04:45;11.70;99.90
17007;DHT22;8620;51.168;4.154;2024-03-06T17:07:11;11.80;99.90
17007;DHT22;8620;51.168;4.154;2024-03-06T17:09:38;11.70;99.90
17007;DHT22;8620;51.168;4.154;2024-03-06T17:12:06;11.70;99.90
17007;DHT22;8620;51.168;4.154;2024-03-06T17:14:33;11.70;99.90
17007;DHT22;8620;51.168;4.154;2024-03-06T17:17:00;11.60;99.90
17007;DHT22;8620;51.168;4.154;2024-03-06T17:19:26;11.70;99.90
17007;DHT22;8620;51.168;4.154;2024-03-06T17:21:51;11.60;99.90
17007;DHT22;8620;51.168;4.154;2024-03-06T17:24:17;11.50;99.90
17007;DHT22;8620;51.168;4.154;2024-03-06T17:26:43;11.50;99.90
17007;DHT22;8620;51.168;4.154;2024-03-06T17:29:11;11.50;99.90
17007;DHT22;8620;51.168;4.154;2024-03-06T17:31:37;11.70;99.90
17007;DHT22;8620;51.168;4.154;2024-03-06T17:34:04;11.80;99.90
17007;DHT22;8620;51.168;4.154;2024-03-06T17:36:31;11.90;99.90
17007;DHT22;8620;51.168;4.154;2024-03-06T17:38:59;11.90;99.90
17007;DHT22;8620;51.168;4.154;2024-03-06T17:41:25;11.90;99.90
17007;DHT22;8620;51.168;4.154;2024-03-06T17:43:51;11.70;99.90
17007;DHT22;8620;51.168;4.154;2024-03-06T17:49:04;11.50;99.90
17007;DHT22;8620;51.168;4.154;2024-03-06T17:51:32;11.50;99.90
17007;DHT22;8620;51.168;4.154;2024-03-06T17:53:59;11.30;99.90
17007;DHT22;8620;51.168;4.154;2024-03-06T17:56:25;11.30;99.90
17007;DHT22;8620;51.168;4.154;2024-03-06T17:58:52;11.20;99.90
17007;DHT22;8620;51.168;4.154;2024-03-06T18:01:26;11.20;99.90
17007;DHT22;8620;51.168;4.154;2024-03-06T18:04:15;11.20;99.90
17007;DHT22;8620;51.168;4.154;2024-03-06T18:06:41;11.10;99.90
17007;DHT22;8620;51.168;4.154;2024-03-06T18:09:07;11.10;99.90
17007;DHT22;8620;51.168;4.154;2024-03-06T18:11:43;11.20;99.90
17007;DHT22;8620;51.168;4.154;2024-03-06T18:14:09;11.30;99.90
17007;DHT22;8620;51.168;4.154;2024-03-06T18:16:35;11.40;99.90
17007;DHT22;8620;51.168;4.154;2024-03-06T18:19:04;11.30;99.90
17007;DHT22;8620;51.168;4.154;2024-03-06T18:21:31;11.10;99.90
17007;DHT22;8620;51.168;4.154;2024-03-06T18:23:56;10.90;99.90
17007;DHT22;8620;51.168;4.154;2024-03-06T18:26:23;10.70;99.90
17007;DHT22;8620;51.168;4.154;2024-03-06T18:28:49;10.60;99.90
17007;DHT22;8620;51.168;4.154;2024-03-06T18:31:15;10.50;99.90
17007;DHT22;8620;51.168;4.154;2024-03-06T18:33:43;10.40;99.90
17007;DHT22;8620;51.168;4.154;2024-03-06T18:36:09;10.30;99.90
17007;DHT22;8620;51.168;4.154;2024-03-06T18:38:35;10.50;99.90
17007;DHT22;8620;51.168;4.154;2024-03-06T18:41:03;10.70;99.90
17007;DHT22;8620;51.168;4.154;2024-03-06T18:43:29;10.70;99.90
17007;DHT22;8620;51.168;4.154;2024-03-06T18:45:55;10.60;99.90
17007;DHT22;8620;51.168;4.154;2024-03-06T18:48:21;10.60;99.90
17007;DHT22;8620;51.168;4.154;2024-03-06T18:50:47;10.60;99.90
17007;DHT22;8620;51.168;4.154;2024-03-06T18:53:13;10.50;99.90
17007;DHT22;8620;51.168;4.154;2024-03-06T18:55:39;10.70;99.90
17007;DHT22;8620;51.168;4.154;2024-03-06T18:58:05;11.00;99.90
17007;DHT22;8620;51.168;4.154;2024-03-06T19:00:32;10.80;99.90
17007;DHT22;8620;51.168;4.154;2024-03-06T19:03:04;10.60;99.90
17007;DHT22;8620;51.168;4.154;2024-03-06T19:05:31;10.50;99.90
17007;DHT22;8620;51.168;4.154;2024-03-06T19:07:57;10.30;99.90
17007;DHT22;8620;51.168;4.154;2024-03-06T19:10:24;10.10;99.90
17007;DHT22;8620;51.168;4.154;2024-03-06T19:13:13;10.10;99.90
17007;DHT22;8620;51.168;4.154;2024-03-06T19:15:39;9.90;99.90
17007;DHT22;8620;51.168;4.154;2024-03-06T19:18:10;10.00;99.90
17007;DHT22;8620;51.168;4.154;2024-03-06T19:20:38;9.80;99.90
17007;DHT22;8620;51.168;4.154;2024-03-06T19:23:04;9.70;99.90
17007;DHT22;8620;51.168;4.154;2024-03-06T19:25:30;9.80;99.90
17007;DHT22;8620;51.168;4.154;2024-03-06T19:27:55;9.90;99.90
17007;DHT22;8620;51.168;4.154;2024-03-06T19:30:21;10.10;99.90
17007;DHT22;8620;51.168;4.154;2024-03-06T19:32:48;10.20;99.90
17007;DHT22;8620;51.168;4.154;2024-03-06T19:35:16;10.10;99.90
17007;DHT22;8620;51.168;4.154;2024-03-06T19:37:42;10.00;99.90
17007;DHT22;8620;51.168;4.154;2024-03-06T19:40:08;9.90;99.90
17007;DHT22;8620;51.168;4.154;2024-03-06T19:42:35;9.70;99.90
17007;DHT22;8620;51.168;4.154;2024-03-06T19:45:02;9.70;99.90
17007;DHT22;8620;51.168;4.154;2024-03-06T19:47:31;9.60;99.90
17007;DHT22;8620;51.168;4.154;2024-03-06T19:49:57;9.50;99.90
17007;DHT22;8620;51.168;4.154;2024-03-06T19:52:23;9.70;99.90
17007;DHT22;8620;51.168;4.154;2024-03-06T19:54:49;9.80;99.90
17007;DHT22;8620;51.168;4.154;2024-03-06T19:57:16;9.70;99.90
17007;DHT22;8620;51.168;4.154;2024-03-06T19:59:42;9.80;99.90
17007;DHT22;8620;51.168;4.154;2024-03-06T20:02:08;9.60;99.90
17007;DHT22;8620;51.168;4.154;2024-03-06T20:04:36;9.50;99.90
17007;DHT22;8620;51.168;4.154;2024-03-06T20:07:02;9.40;99.90
17007;DHT22;8620;51.168;4.154;2024-03-06T20:09:37;9.40;99.90
17007;DHT22;8620;51.168;4.154;2024-03-06T20:12:03;9.30;99.90
17007;DHT22;8620;51.168;4.154;2024-03-06T20:14:30;9.10;99.90
17007;DHT22;8620;51.168;4.154;2024-03-06T20:17:00;9.00;99.90
17007;DHT22;8620;51.168;4.154;2024-03-06T20:19:29;9.00;99.90
17007;DHT22;8620;51.168;4.154;2024-03-06T20:21:56;9.20;99.90
17007;DHT22;8620;51.168;4.154;2024-03-06T20:24:23;9.30;99.90
17007;DHT22;8620;51.168;4.154;2024-03-06T20:26:49;9.00;99.90
17007;DHT22;8620;51.168;4.154;2024-03-06T20:29:15;8.90;99.90
17007;DHT22;8620;51.168;4.154;2024-03-06T20:31:42;8.80;99.90
17007;DHT22;8620;51.168;4.154;2024-03-06T20:34:10;8.80;99.90
17007;DHT22;8620;51.168;4.154;2024-03-06T20:36:36;8.80;99.90
17007;DHT22;8620;51.168;4.154;2024-03-06T20:39:02;8.90;99.90
17007;DHT22;8620;51.168;4.154;2024-03-06T20:41:28;8.80;99.90
17007;DHT22;8620;51.168;4.154;2024-03-06T20:43:55;8.70;99.90
17007;DHT22;8620;51.168;4.154;2024-03-06T20:46:21;8.70;99.90
17007;DHT22;8620;51.168;4.154;2024-03-06T20:48:47;8.70;99.90
17007;DHT22;8620;51.168;4.154;2024-03-06T20:51:13;8.70;99.90
17007;DHT22;8620;51.168;4.154;2024-03-06T20:53:39;8.80;99.90
17007;DHT22;8620;51.168;4.154;2024-03-06T20:56:05;8.80;99.90
17007;DHT22;8620;51.168;4.154;2024-03-06T20:58:33;8.70;99.90
